sensor_id;sensor_type;location;lat;lon;timestamp;temperature;humidity
1678;DHT22;6034;46.864;15.216;2022-08-19T05:02:11;20.90;99.90
1678;DHT22;6034;46.864;15.216;2022-08-19T05:04:38;21.00;99.90
1678;DHT22;6034;46.864;15.216;2022-08-19T05:07:05;21.00;99.90
1678;DHT22;6034;46.864;15.216;2022-08-19T05:09:33;21.00;99.90
1678;DHT22;6034;46.864;15.216;2022-08-19T05:12:00;21.00;99.90
1678;DHT22;6034;46.864;15.216;2022-08-19T05:14:27;21.00;99.90
1678;DHT22;6034;46.864;15.216;2022-08-19T05:16:54;21.00;99.90
1678;DHT22;6034;46.864;15.216;2022-08-19T05:19:22;21.10;99.90
1678;DHT22;6034;46.864;15.216;2022-08-19T05:22:07;21.10;99.90
1678;DHT22;6034;46.864;15.216;2022-08-19T05:24:51;21.20;99.90
1678;DHT22;6034;46.864;15.216;2022-08-19T05:27:18;21.30;99.90
1678;DHT22;6034;46.864;15.216;2022-08-19T05:29:45;21.30;99.90
1678;DHT22;6034;46.864;15.216;2022-08-19T05:32:12;21.30;99.90
1678;DHT22;6034;46.864;15.216;2022-08-19T05:34:40;21.30;99.90
1678;DHT22;6034;46.864;15.216;2022-08-19T05:37:07;21.30;99.90
1678;DHT22;6034;46.864;15.216;2022-08-19T05:39:36;21.40;99.90
1678;DHT22;6034;46.864;15.216;2022-08-19T05:42:05;21.40;99.90
1678;DHT22;6034;46.864;15.216;2022-08-19T05:44:34;21.50;99.90
1678;DHT22;6034;46.864;15.216;2022-08-19T05:47:02;21.50;99.90
1678;DHT22;6034;46.864;15.216;2022-08-19T05:49:30;21.60;99.90
1678;DHT22;6034;46.864;15.216;2022-08-19T05:51:58;21.60;99.90
1678;DHT22;6034;46.864;15.216;2022-08-19T05:54:27;21.60;99.90
1678;DHT22;6034;46.864;15.216;2022-08-19T05:56:57;21.60;99.90
1678;DHT22;6034;46.864;15.216;2022-08-19T05:59:24;21.70;99.90
1678;DHT22;6034;46.864;15.216;2022-08-19T06:01:53;21.70;99.90
1678;DHT22;6034;46.864;15.216;2022-08-19T06:04:22;21.90;99.90
1678;DHT22;6034;46.864;15.216;2022-08-19T06:06:50;21.90;99.90
1678;DHT22;6034;46.864;15.216;2022-08-19T06:09:19;22.00;99.90
1678;DHT22;6034;46.864;15.216;2022-08-19T06:11:47;22.00;99.90
1678;DHT22;6034;46.864;15.216;2022-08-19T06:14:15;22.00;99.90
1678;DHT22;6034;46.864;15.216;2022-08-19T06:16:43;22.00;99.90
1678;DHT22;6034;46.864;15.216;2022-08-19T06:19:13;22.00;99.90
1678;DHT22;6034;46.864;15.216;2022-08-19T06:21:43;22.10;99.90
1678;DHT22;6034;46.864;15.216;2022-08-19T06:24:13;22.20;99.90
1678;DHT22;6034;46.864;15.216;2022-08-19T06:26:44;22.30;99.90
1678;DHT22;6034;46.864;15.216;2022-08-19T06:29:12;22.30;99.90
1678;DHT22;6034;46.864;15.216;2022-08-19T06:31:41;22.50;99.90
1678;DHT22;6034;46.864;15.216;2022-08-19T06:34:08;22.50;99.90
1678;DHT22;6034;46.864;15.216;2022-08-19T06:36:36;22.60;99.90
1678;DHT22;6034;46.864;15.216;2022-08-19T06:39:04;22.60;99.90
1678;DHT22;6034;46.864;15.216;2022-08-19T06:41:32;22.60;99.90
1678;DHT22;6034;46.864;15.216;2022-08-19T06:44:02;22.60;99.90
1678;DHT22;6034;46.864;15.216;2022-08-19T06:46:29;22.60;99.90
1678;DHT22;6034;46.864;15.216;2022-08-19T06:48:56;22.70;99.90
1678;DHT22;6034;46.864;15.216;2022-08-19T06:51:23;22.70;99.90
1678;DHT22;6034;46.864;15.216;2022-08-19T06:53:51;22.70;99.90
1678;DHT22;6034;46.864;15.216;2022-08-19T06:56:19;22.70;99.90
1678;DHT22;6034;46.864;15.216;2022-08-19T06:58:47;23.00;99.90
1678;DHT22;6034;46.864;15.216;2022-08-19T07:01:17;22.70;99.90
1678;DHT22;6034;46.864;15.216;2022-08-19T07:03:44;22.70;99.90
1678;DHT22;6034;46.864;15.216;2022-08-19T07:06:12;22.70;99.90
1678;DHT22;6034;46.864;15.216;2022-08-19T07:08:40;22.70;99.90
1678;DHT22;6034;46.864;15.216;2022-08-19T07:11:08;22.60;99.90
1678;DHT22;6034;46.864;15.216;2022-08-19T07:13:36;22.60;99.90
1678;DHT22;6034;46.864;15.216;2022-08-19T07:16:04;22.50;99.90
1678;DHT22;6034;46.864;15.216;2022-08-19T07:18:33;22.60;99.90
1678;DHT22;6034;46.864;15.216;2022-08-19T07:21:03;22.60;99.90
1678;DHT22;6034;46.864;15.216;2022-08-19T07:23:31;22.60;99.90
1678;DHT22;6034;46.864;15.216;2022-08-19T07:26:03;22.60;99.90
1678;DHT22;6034;46.864;15.216;2022-08-19T07:28:30;22.50;99.90
1678;DHT22;6034;46.864;15.216;2022-08-19T07:30:57;22.60;99.90
1678;DHT22;6034;46.864;15.216;2022-08-19T07:33:24;22.50;99.90
1678;DHT22;6034;46.864;15.216;2022-08-19T07:35:53;22.40;99.90
1678;DHT22;6034;46.864;15.216;2022-08-19T07:38:20;21.70;99.90
1678;DHT22;6034;46.864;15.216;2022-08-19T07:40:47;21.60;99.90
1678;DHT22;6034;46.864;15.216;2022-08-19T07:43:14;21.40;99.90
1678;DHT22;6034;46.864;15.216;2022-08-19T07:45:41;21.70;99.90
1678;DHT22;6034;46.864;15.216;2022-08-19T07:48:09;21.20;99.90
1678;DHT22;6034;46.864;15.216;2022-08-19T07:50:35;21.00;99.90
1678;DHT22;6034;46.864;15.216;2022-08-19T07:53:04;21.20;99.90
1678;DHT22;6034;46.864;15.216;2022-08-19T07:55:31;21.60;99.90
1678;DHT22;6034;46.864;15.216;2022-08-19T07:57:59;21.80;99.90
1678;DHT22;6034;46.864;15.216;2022-08-19T08:00:26;21.20;99.90
1678;DHT22;6034;46.864;15.216;2022-08-19T08:02:53;21.70;99.90
1678;DHT22;6034;46.864;15.216;2022-08-19T08:05:19;21.90;99.90
1678;DHT22;6034;46.864;15.216;2022-08-19T08:08:05;21.90;99.90
1678;DHT22;6034;46.864;15.216;2022-08-19T08:10:50;21.70;99.90
1678;DHT22;6034;46.864;15.216;2022-08-19T08:13:19;21.80;99.90
1678;DHT22;6034;46.864;15.216;2022-08-19T08:15:45;21.90;99.90
1678;DHT22;6034;46.864;15.216;2022-08-19T08:18:12;21.90;99.90
1678;DHT22;6034;46.864;15.216;2022-08-19T08:20:39;21.60;99.90
1678;DHT22;6034;46.864;15.216;2022-08-19T08:23:08;20.70;99.90
1678;DHT22;6034;46.864;15.216;2022-08-19T08:25:50;20.50;99.90
1678;DHT22;6034;46.864;15.216;2022-08-19T08:28:18;20.90;99.90
1678;DHT22;6034;46.864;15.216;2022-08-19T08:30:45;21.40;99.90
1678;DHT22;6034;46.864;15.216;2022-08-19T08:33:12;21.70;99.90
1678;DHT22;6034;46.864;15.216;2022-08-19T08:35:40;21.90;99.90
1678;DHT22;6034;46.864;15.216;2022-08-19T08:38:09;22.00;99.90
1678;DHT22;6034;46.864;15.216;2022-08-19T08:40:38;22.10;99.90
1678;DHT22;6034;46.864;15.216;2022-08-19T08:43:07;22.30;99.90
1678;DHT22;6034;46.864;15.216;2022-08-19T08:45:35;22.30;99.90
1678;DHT22;6034;46.864;15.216;2022-08-19T08:48:04;22.40;99.90
1678;DHT22;6034;46.864;15.216;2022-08-19T08:50:36;22.40;99.90
1678;DHT22;6034;46.864;15.216;2022-08-19T08:53:06;22.40;99.90
1678;DHT22;6034;46.864;15.216;2022-08-19T08:55:35;22.50;99.90
1678;DHT22;6034;46.864;15.216;2022-08-19T08:58:03;22.60;99.90
1678;DHT22;6034;46.864;15.216;2022-08-19T09:00:32;22.60;99.90
1678;DHT22;6034;46.864;15.216;2022-08-19T09:02:59;22.60;99.90
1678;DHT22;6034;46.864;15.216;2022-08-19T09:05:40;22.60;99.90
1678;DHT22;6034;46.864;15.216;2022-08-19T09:08:11;22.40;99.90
1678;DHT22;6034;46.864;15.216;2022-08-19T09:10:43;22.20;99.90
1678;DHT22;6034;46.864;15.216;2022-08-19T09:13:18;22.70;99.90
1678;DHT22;6034;46.864;15.216;2022-08-19T09:15:49;22.70;99.90
1678;DHT22;6034;46.864;15.216;2022-08-19T09:18:19;22.40;99.90
1678;DHT22;6034;46.864;15.216;2022-08-19T09:20:50;22.40;99.90
1678;DHT22;6034;46.864;15.216;2022-08-19T09:23:24;22.60;99.90
1678;DHT22;6034;46.864;15.216;2022-08-19T09:25:58;22.50;99.90
1678;DHT22;6034;46.864;15.216;2022-08-19T09:28:26;22.60;99.90
1678;DHT22;6034;46.864;15.216;2022-08-19T09:30:54;22.80;99.90
1678;DHT22;6034;46.864;15.216;2022-08-19T09:33:21;22.70;99.90
1678;DHT22;6034;46.864;15.216;2022-08-19T09:35:48;23.30;99.90
1678;DHT22;6034;46.864;15.216;2022-08-19T09:38:16;22.80;99.90
1678;DHT22;6034;46.864;15.216;2022-08-19T09:40:45;22.30;99.90
1678;DHT22;6034;46.864;15.216;2022-08-19T09:43:13;22.10;99.90
1678;DHT22;6034;46.864;15.216;2022-08-19T09:45:40;22.70;99.90
1678;DHT22;6034;46.864;15.216;2022-08-19T09:48:07;23.10;99.90
1678;DHT22;6034;46.864;15.216;2022-08-19T09:50:34;23.10;99.90
1678;DHT22;6034;46.864;15.216;2022-08-19T09:53:03;23.30;99.90
1678;DHT22;6034;46.864;15.216;2022-08-19T09:55:31;23.40;99.90
1678;DHT22;6034;46.864;15.216;2022-08-19T09:58:01;23.40;99.90
1678;DHT22;6034;46.864;15.216;2022-08-19T10:00:29;23.60;99.90
1678;DHT22;6034;46.864;15.216;2022-08-19T10:02:57;23.70;99.90
1678;DHT22;6034;46.864;15.216;2022-08-19T10:05:24;23.80;99.90
1678;DHT22;6034;46.864;15.216;2022-08-19T10:08:08;23.80;99.90
1678;DHT22;6034;46.864;15.216;2022-08-19T10:10:37;23.90;99.90
1678;DHT22;6034;46.864;15.216;2022-08-19T10:13:04;23.60;99.90
1678;DHT22;6034;46.864;15.216;2022-08-19T10:15:34;23.40;99.90
1678;DHT22;6034;46.864;15.216;2022-08-19T10:18:01;23.40;99.90
1678;DHT22;6034;46.864;15.216;2022-08-19T10:20:28;23.50;99.90
1678;DHT22;6034;46.864;15.216;2022-08-19T10:22:55;23.70;99.90
1678;DHT22;6034;46.864;15.216;2022-08-19T10:25:23;23.80;99.90
1678;DHT22;6034;46.864;15.216;2022-08-19T10:27:51;23.70;99.90
1678;DHT22;6034;46.864;15.216;2022-08-19T10:30:18;23.90;99.90
1678;DHT22;6034;46.864;15.216;2022-08-19T10:32:47;23.90;99.90
1678;DHT22;6034;46.864;15.216;2022-08-19T10:35:14;24.00;99.90
1678;DHT22;6034;46.864;15.216;2022-08-19T10:37:41;23.90;99.90
1678;DHT22;6034;46.864;15.216;2022-08-19T10:40:08;24.20;99.90
1678;DHT22;6034;46.864;15.216;2022-08-19T10:42:36;23.90;99.90
1678;DHT22;6034;46.864;15.216;2022-08-19T10:45:04;23.90;99.90
1678;DHT22;6034;46.864;15.216;2022-08-19T10:47:31;23.50;99.90
1678;DHT22;6034;46.864;15.216;2022-08-19T10:49:59;23.30;99.90
1678;DHT22;6034;46.864;15.216;2022-08-19T10:52:45;23.40;99.90
1678;DHT22;6034;46.864;15.216;2022-08-19T10:55:12;23.20;99.90
1678;DHT22;6034;46.864;15.216;2022-08-19T10:57:57;23.20;99.90
1678;DHT22;6034;46.864;15.216;2022-08-19T11:00:24;23.10;99.90
1678;DHT22;6034;46.864;15.216;2022-08-19T11:02:51;23.50;99.90
1678;DHT22;6034;46.864;15.216;2022-08-19T11:05:20;23.60;99.90
1678;DHT22;6034;46.864;15.216;2022-08-19T11:07:47;24.00;99.90
1678;DHT22;6034;46.864;15.216;2022-08-19T11:10:16;23.70;99.90
1678;DHT22;6034;46.864;15.216;2022-08-19T11:12:44;23.60;99.90
1678;DHT22;6034;46.864;15.216;2022-08-19T11:15:12;23.70;99.90
1678;DHT22;6034;46.864;15.216;2022-08-19T11:17:38;23.90;99.90
1678;DHT22;6034;46.864;15.216;2022-08-19T11:20:08;23.90;99.90
1678;DHT22;6034;46.864;15.216;2022-08-19T11:22:37;23.60;99.90
1678;DHT22;6034;46.864;15.216;2022-08-19T11:25:05;23.70;99.90
1678;DHT22;6034;46.864;15.216;2022-08-19T11:27:32;23.40;99.90
1678;DHT22;6034;46.864;15.216;2022-08-19T11:29:59;23.70;99.90
1678;DHT22;6034;46.864;15.216;2022-08-19T11:32:29;24.00;99.90
1678;DHT22;6034;46.864;15.216;2022-08-19T11:34:56;24.20;99.90
1678;DHT22;6034;46.864;15.216;2022-08-19T11:37:23;24.30;99.90
1678;DHT22;6034;46.864;15.216;2022-08-19T11:39:51;24.20;99.90
1678;DHT22;6034;46.864;15.216;2022-08-19T11:42:19;24.30;99.90
1678;DHT22;6034;46.864;15.216;2022-08-19T11:45:03;24.60;99.90
1678;DHT22;6034;46.864;15.216;2022-08-19T11:47:30;24.20;99.90
1678;DHT22;6034;46.864;15.216;2022-08-19T11:49:58;24.60;99.90
1678;DHT22;6034;46.864;15.216;2022-08-19T11:52:25;24.60;99.90
1678;DHT22;6034;46.864;15.216;2022-08-19T11:54:53;24.70;99.90
1678;DHT22;6034;46.864;15.216;2022-08-19T11:57:20;24.80;99.90
1678;DHT22;6034;46.864;15.216;2022-08-19T11:59:50;25.00;99.90
1678;DHT22;6034;46.864;15.216;2022-08-19T12:02:18;24.90;99.90
1678;DHT22;6034;46.864;15.216;2022-08-19T12:04:45;24.60;99.90
1678;DHT22;6034;46.864;15.216;2022-08-19T12:07:12;24.60;99.90
1678;DHT22;6034;46.864;15.216;2022-08-19T12:09:39;24.70;99.90
1678;DHT22;6034;46.864;15.216;2022-08-19T12:12:08;24.70;99.90
1678;DHT22;6034;46.864;15.216;2022-08-19T12:14:35;24.80;99.90
1678;DHT22;6034;46.864;15.216;2022-08-19T12:17:02;24.40;99.90
1678;DHT22;6034;46.864;15.216;2022-08-19T12:19:30;24.30;99.90
1678;DHT22;6034;46.864;15.216;2022-08-19T12:21:58;25.00;99.90
1678;DHT22;6034;46.864;15.216;2022-08-19T12:24:26;24.60;99.90
1678;DHT22;6034;46.864;15.216;2022-08-19T12:26:53;24.30;99.90
1678;DHT22;6034;46.864;15.216;2022-08-19T12:29:22;24.20;99.90
1678;DHT22;6034;46.864;15.216;2022-08-19T12:31:53;24.80;99.90
1678;DHT22;6034;46.864;15.216;2022-08-19T12:34:26;25.00;99.90
1678;DHT22;6034;46.864;15.216;2022-08-19T12:36:55;24.70;99.90
1678;DHT22;6034;46.864;15.216;2022-08-19T12:39:22;25.20;99.90
1678;DHT22;6034;46.864;15.216;2022-08-19T12:41:49;25.60;99.90
1678;DHT22;6034;46.864;15.216;2022-08-19T12:44:16;25.70;99.90
1678;DHT22;6034;46.864;15.216;2022-08-19T12:46:44;25.70;99.90
1678;DHT22;6034;46.864;15.216;2022-08-19T12:49:12;25.80;99.90
1678;DHT22;6034;46.864;15.216;2022-08-19T12:51:38;25.80;99.90
1678;DHT22;6034;46.864;15.216;2022-08-19T12:54:05;25.30;99.90
1678;DHT22;6034;46.864;15.216;2022-08-19T12:56:32;25.60;99.90
1678;DHT22;6034;46.864;15.216;2022-08-19T12:59:00;25.60;99.90
1678;DHT22;6034;46.864;15.216;2022-08-19T13:01:27;25.60;99.90
1678;DHT22;6034;46.864;15.216;2022-08-19T13:03:59;25.50;99.90
1678;DHT22;6034;46.864;15.216;2022-08-19T13:06:26;25.40;99.90
1678;DHT22;6034;46.864;15.216;2022-08-19T13:08:53;25.30;99.90
1678;DHT22;6034;46.864;15.216;2022-08-19T13:11:21;25.40;99.90
1678;DHT22;6034;46.864;15.216;2022-08-19T13:13:50;25.30;99.90
1678;DHT22;6034;46.864;15.216;2022-08-19T13:16:17;25.30;99.90
1678;DHT22;6034;46.864;15.216;2022-08-19T13:18:45;25.40;99.90
1678;DHT22;6034;46.864;15.216;2022-08-19T13:21:14;25.30;99.90
1678;DHT22;6034;46.864;15.216;2022-08-19T13:23:41;25.80;99.90
1678;DHT22;6034;46.864;15.216;2022-08-19T13:26:09;25.90;99.90
1678;DHT22;6034;46.864;15.216;2022-08-19T13:28:36;25.50;99.90
1678;DHT22;6034;46.864;15.216;2022-08-19T13:31:22;25.10;99.90
1678;DHT22;6034;46.864;15.216;2022-08-19T13:34:07;25.70;99.90
1678;DHT22;6034;46.864;15.216;2022-08-19T13:36:36;26.00;99.90
1678;DHT22;6034;46.864;15.216;2022-08-19T13:39:03;26.20;99.90
1678;DHT22;6034;46.864;15.216;2022-08-19T13:41:30;26.20;99.90
1678;DHT22;6034;46.864;15.216;2022-08-19T13:43:57;26.00;99.90
1678;DHT22;6034;46.864;15.216;2022-08-19T13:46:24;26.30;99.90
1678;DHT22;6034;46.864;15.216;2022-08-19T13:48:51;25.80;99.90
1678;DHT22;6034;46.864;15.216;2022-08-19T13:51:18;26.00;99.90
1678;DHT22;6034;46.864;15.216;2022-08-19T13:53:46;26.20;99.90
1678;DHT22;6034;46.864;15.216;2022-08-19T13:56:14;26.40;99.90
1678;DHT22;6034;46.864;15.216;2022-08-19T13:58:42;26.50;99.90
1678;DHT22;6034;46.864;15.216;2022-08-19T14:01:09;26.60;99.90
1678;DHT22;6034;46.864;15.216;2022-08-19T14:03:38;26.70;99.90
1678;DHT22;6034;46.864;15.216;2022-08-19T14:06:05;26.70;99.90
1678;DHT22;6034;46.864;15.216;2022-08-19T14:08:32;26.70;99.90
1678;DHT22;6034;46.864;15.216;2022-08-19T14:11:00;26.70;99.90
1678;DHT22;6034;46.864;15.216;2022-08-19T14:13:30;26.80;99.90
1678;DHT22;6034;46.864;15.216;2022-08-19T14:15:59;26.80;99.90
1678;DHT22;6034;46.864;15.216;2022-08-19T14:18:26;26.90;99.90
1678;DHT22;6034;46.864;15.216;2022-08-19T14:20:53;26.80;99.90
1678;DHT22;6034;46.864;15.216;2022-08-19T14:23:21;26.70;99.90
1678;DHT22;6034;46.864;15.216;2022-08-19T14:25:48;26.60;99.90
1678;DHT22;6034;46.864;15.216;2022-08-19T14:28:18;26.80;99.90
1678;DHT22;6034;46.864;15.216;2022-08-19T14:30:45;26.80;99.90
1678;DHT22;6034;46.864;15.216;2022-08-19T14:33:12;26.70;99.90
1678;DHT22;6034;46.864;15.216;2022-08-19T14:35:39;26.60;99.90
1678;DHT22;6034;46.864;15.216;2022-08-19T14:38:14;26.70;99.90
1678;DHT22;6034;46.864;15.216;2022-08-19T14:40:41;26.80;99.90
1678;DHT22;6034;46.864;15.216;2022-08-19T14:43:08;26.50;99.90
1678;DHT22;6034;46.864;15.216;2022-08-19T14:45:38;26.30;99.90
1678;DHT22;6034;46.864;15.216;2022-08-19T14:48:07;26.10;99.90
1678;DHT22;6034;46.864;15.216;2022-08-19T14:50:34;26.00;99.90
1678;DHT22;6034;46.864;15.216;2022-08-19T14:53:04;26.10;99.90
1678;DHT22;6034;46.864;15.216;2022-08-19T14:55:32;26.00;99.90
1678;DHT22;6034;46.864;15.216;2022-08-19T14:57:58;26.10;99.90
1678;DHT22;6034;46.864;15.216;2022-08-19T15:00:25;26.10;99.90
1678;DHT22;6034;46.864;15.216;2022-08-19T15:02:54;26.10;99.90
1678;DHT22;6034;46.864;15.216;2022-08-19T15:05:21;26.20;99.90
1678;DHT22;6034;46.864;15.216;2022-08-19T15:07:48;26.20;99.90
1678;DHT22;6034;46.864;15.216;2022-08-19T15:10:15;25.90;99.90
1678;DHT22;6034;46.864;15.216;2022-08-19T15:12:41;25.80;99.90
1678;DHT22;6034;46.864;15.216;2022-08-19T15:15:10;25.80;99.90
1678;DHT22;6034;46.864;15.216;2022-08-19T15:17:38;25.80;99.90
1678;DHT22;6034;46.864;15.216;2022-08-19T15:20:07;25.70;99.90
1678;DHT22;6034;46.864;15.216;2022-08-19T15:22:35;25.60;99.90
1678;DHT22;6034;46.864;15.216;2022-08-19T15:25:02;25.60;99.90
1678;DHT22;6034;46.864;15.216;2022-08-19T15:27:29;25.50;99.90
1678;DHT22;6034;46.864;15.216;2022-08-19T15:29:56;25.50;99.90
1678;DHT22;6034;46.864;15.216;2022-08-19T15:32:24;25.70;99.90
1678;DHT22;6034;46.864;15.216;2022-08-19T15:34:52;25.60;99.90
1678;DHT22;6034;46.864;15.216;2022-08-19T15:37:20;25.60;99.90
1678;DHT22;6034;46.864;15.216;2022-08-19T15:39:48;25.50;99.90
1678;DHT22;6034;46.864;15.216;2022-08-19T15:42:15;25.50;99.90
1678;DHT22;6034;46.864;15.216;2022-08-19T15:44:42;25.60;99.90
1678;DHT22;6034;46.864;15.216;2022-08-19T15:47:09;25.60;99.90
1678;DHT22;6034;46.864;15.216;2022-08-19T15:49:36;25.50;99.90
1678;DHT22;6034;46.864;15.216;2022-08-19T15:52:03;25.60;99.90
1678;DHT22;6034;46.864;15.216;2022-08-19T15:54:32;25.60;99.90
1678;DHT22;6034;46.864;15.216;2022-08-19T15:56:59;25.60;99.90
1678;DHT22;6034;46.864;15.216;2022-08-19T15:59:44;25.50;99.90
1678;DHT22;6034;46.864;15.216;2022-08-19T16:02:28;25.60;99.90
1678;DHT22;6034;46.864;15.216;2022-08-19T16:05:13;25.60;99.90
1678;DHT22;6034;46.864;15.216;2022-08-19T16:07:58;25.40;99.90
1678;DHT22;6034;46.864;15.216;2022-08-19T16:10:27;25.50;99.90
1678;DHT22;6034;46.864;15.216;2022-08-19T16:12:54;25.50;99.90
1678;DHT22;6034;46.864;15.216;2022-08-19T16:15:22;25.50;99.90
1678;DHT22;6034;46.864;15.216;2022-08-19T16:17:48;25.50;99.90
1678;DHT22;6034;46.864;15.216;2022-08-19T16:20:15;25.50;99.90
1678;DHT22;6034;46.864;15.216;2022-08-19T16:22:44;25.40;99.90
1678;DHT22;6034;46.864;15.216;2022-08-19T16:25:11;25.40;99.90
1678;DHT22;6034;46.864;15.216;2022-08-19T16:27:39;25.40;99.90
1678;DHT22;6034;46.864;15.216;2022-08-19T16:30:07;25.30;99.90
1678;DHT22;6034;46.864;15.216;2022-08-19T16:32:34;25.30;99.90
1678;DHT22;6034;46.864;15.216;2022-08-19T16:35:02;25.20;99.90
1678;DHT22;6034;46.864;15.216;2022-08-19T16:37:29;25.20;99.90
1678;DHT22;6034;46.864;15.216;2022-08-19T16:39:57;25.10;99.90
1678;DHT22;6034;46.864;15.216;2022-08-19T16:42:24;25.00;99.90
1678;DHT22;6034;46.864;15.216;2022-08-19T16:44:52;24.90;99.90
1678;DHT22;6034;46.864;15.216;2022-08-19T16:47:19;24.90;99.90
1678;DHT22;6034;46.864;15.216;2022-08-19T16:49:46;24.80;99.90
1678;DHT22;6034;46.864;15.216;2022-08-19T16:52:13;24.80;99.90
1678;DHT22;6034;46.864;15.216;2022-08-19T16:54:40;24.80;99.90
1678;DHT22;6034;46.864;15.216;2022-08-19T16:57:07;24.80;99.90
1678;DHT22;6034;46.864;15.216;2022-08-19T16:59:34;24.70;99.90
1678;DHT22;6034;46.864;15.216;2022-08-19T17:02:03;24.60;99.90
1678;DHT22;6034;46.864;15.216;2022-08-19T17:04:30;24.60;99.90
1678;DHT22;6034;46.864;15.216;2022-08-19T17:06:56;24.20;99.90
1678;DHT22;6034;46.864;15.216;2022-08-19T17:09:23;23.90;99.90
1678;DHT22;6034;46.864;15.216;2022-08-19T17:11:50;23.90;99.90
1678;DHT22;6034;46.864;15.216;2022-08-19T17:14:17;23.80;99.90
1678;DHT22;6034;46.864;15.216;2022-08-19T17:16:44;23.80;99.90
1678;DHT22;6034;46.864;15.216;2022-08-19T17:19:13;23.60;99.90
1678;DHT22;6034;46.864;15.216;2022-08-19T17:21:41;23.50;99.90
1678;DHT22;6034;46.864;15.216;2022-08-19T17:24:08;23.60;99.90
1678;DHT22;6034;46.864;15.216;2022-08-19T17:26:35;23.60;99.90
1678;DHT22;6034;46.864;15.216;2022-08-19T17:29:03;23.60;99.90
1678;DHT22;6034;46.864;15.216;2022-08-19T17:31:30;23.60;99.90
1678;DHT22;6034;46.864;15.216;2022-08-19T17:33:57;23.50;99.90
1678;DHT22;6034;46.864;15.216;2022-08-19T17:36:26;23.20;99.90
1678;DHT22;6034;46.864;15.216;2022-08-19T17:38:54;23.00;99.90
1678;DHT22;6034;46.864;15.216;2022-08-19T17:41:21;22.90;99.90
1678;DHT22;6034;46.864;15.216;2022-08-19T17:43:48;22.90;99.90
1678;DHT22;6034;46.864;15.216;2022-08-19T17:46:15;23.00;99.90
1678;DHT22;6034;46.864;15.216;2022-08-19T17:48:44;23.00;99.90
1678;DHT22;6034;46.864;15.216;2022-08-19T17:51:15;22.90;99.90
1678;DHT22;6034;46.864;15.216;2022-08-19T17:53:43;22.90;99.90
1678;DHT22;6034;46.864;15.216;2022-08-19T17:56:10;23.00;99.90
1678;DHT22;6034;46.864;15.216;2022-08-19T17:58:38;23.10;99.90
1678;DHT22;6034;46.864;15.216;2022-08-19T18:01:06;23.10;99.90
1678;DHT22;6034;46.864;15.216;2022-08-19T18:03:33;23.10;99.90
1678;DHT22;6034;46.864;15.216;2022-08-19T18:06:00;23.10;99.90
1678;DHT22;6034;46.864;15.216;2022-08-19T18:08:27;23.10;99.90
1678;DHT22;6034;46.864;15.216;2022-08-19T18:10:55;23.10;99.90
1678;DHT22;6034;46.864;15.216;2022-08-19T18:13:22;23.00;99.90
1678;DHT22;6034;46.864;15.216;2022-08-19T18:15:49;23.10;99.90
1678;DHT22;6034;46.864;15.216;2022-08-19T18:18:16;23.00;99.90
1678;DHT22;6034;46.864;15.216;2022-08-19T18:20:43;23.00;99.90
1678;DHT22;6034;46.864;15.216;2022-08-19T18:23:10;22.80;99.90
1678;DHT22;6034;46.864;15.216;2022-08-19T18:25:37;22.80;99.90
1678;DHT22;6034;46.864;15.216;2022-08-19T18:28:05;22.80;99.90
1678;DHT22;6034;46.864;15.216;2022-08-19T18:30:32;22.80;99.90
1678;DHT22;6034;46.864;15.216;2022-08-19T18:33:00;22.80;99.90
1678;DHT22;6034;46.864;15.216;2022-08-19T18:35:28;22.80;99.90
1678;DHT22;6034;46.864;15.216;2022-08-19T18:37:56;22.70;99.90
1678;DHT22;6034;46.864;15.216;2022-08-19T18:40:24;22.50;99.90
1678;DHT22;6034;46.864;15.216;2022-08-19T18:43:09;22.60;99.90
1678;DHT22;6034;46.864;15.216;2022-08-19T18:45:54;22.70;99.90
1678;DHT22;6034;46.864;15.216;2022-08-19T18:48:38;22.70;99.90
1678;DHT22;6034;46.864;15.216;2022-08-19T18:51:34;22.60;99.90
1678;DHT22;6034;46.864;15.216;2022-08-19T18:54:01;22.60;99.90
1678;DHT22;6034;46.864;15.216;2022-08-19T18:56:28;22.50;99.90
1678;DHT22;6034;46.864;15.216;2022-08-19T18:58:58;22.50;99.90
1678;DHT22;6034;46.864;15.216;2022-08-19T19:01:26;22.50;99.90
1678;DHT22;6034;46.864;15.216;2022-08-19T19:03:54;22.50;99.90
1678;DHT22;6034;46.864;15.216;2022-08-19T19:06:21;22.50;99.90
1678;DHT22;6034;46.864;15.216;2022-08-19T19:08:49;22.40;99.90
1678;DHT22;6034;46.864;15.216;2022-08-19T19:11:17;22.30;99.90
1678;DHT22;6034;46.864;15.216;2022-08-19T19:13:47;22.10;99.90
1678;DHT22;6034;46.864;15.216;2022-08-19T19:16:15;22.20;99.90
1678;DHT22;6034;46.864;15.216;2022-08-19T19:18:42;22.20;99.90
1678;DHT22;6034;46.864;15.216;2022-08-19T19:21:09;22.20;99.90
1678;DHT22;6034;46.864;15.216;2022-08-19T19:23:37;22.30;99.90
1678;DHT22;6034;46.864;15.216;2022-08-19T19:26:05;22.30;99.90
1678;DHT22;6034;46.864;15.216;2022-08-19T19:28:35;22.30;99.90
1678;DHT22;6034;46.864;15.216;2022-08-19T19:31:03;22.20;99.90
1678;DHT22;6034;46.864;15.216;2022-08-19T19:33:32;22.20;99.90
1678;DHT22;6034;46.864;15.216;2022-08-19T19:35:59;22.30;99.90
1678;DHT22;6034;46.864;15.216;2022-08-19T19:38:25;22.20;99.90
1678;DHT22;6034;46.864;15.216;2022-08-19T19:40:52;22.30;99.90
1678;DHT22;6034;46.864;15.216;2022-08-19T19:43:19;22.20;99.90
1678;DHT22;6034;46.864;15.216;2022-08-19T19:45:46;22.00;99.90
1678;DHT22;6034;46.864;15.216;2022-08-19T19:48:14;22.10;99.90
1678;DHT22;6034;46.864;15.216;2022-08-19T19:50:42;22.20;99.90
1678;DHT22;6034;46.864;15.216;2022-08-19T19:53:10;22.10;99.90
1678;DHT22;6034;46.864;15.216;2022-08-19T19:55:39;22.10;99.90
1678;DHT22;6034;46.864;15.216;2022-08-19T19:58:06;21.90;99.90
1678;DHT22;6034;46.864;15.216;2022-08-19T20:00:34;22.00;99.90
1678;DHT22;6034;46.864;15.216;2022-08-19T20:03:00;22.00;99.90
1678;DHT22;6034;46.864;15.216;2022-08-19T20:05:28;21.80;99.90
1678;DHT22;6034;46.864;15.216;2022-08-19T20:07:56;21.70;99.90
1678;DHT22;6034;46.864;15.216;2022-08-19T20:10:41;21.70;99.90
1678;DHT22;6034;46.864;15.216;2022-08-19T20:13:09;21.70;99.90
1678;DHT22;6034;46.864;15.216;2022-08-19T20:15:37;21.70;99.90
1678;DHT22;6034;46.864;15.216;2022-08-19T20:18:05;21.80;99.90
1678;DHT22;6034;46.864;15.216;2022-08-19T20:20:31;21.90;99.90
1678;DHT22;6034;46.864;15.216;2022-08-19T20:23:00;21.90;99.90
1678;DHT22;6034;46.864;15.216;2022-08-19T20:25:27;22.00;99.90
1678;DHT22;6034;46.864;15.216;2022-08-19T20:27:56;22.00;99.90
1678;DHT22;6034;46.864;15.216;2022-08-19T20:30:25;22.10;99.90
1678;DHT22;6034;46.864;15.216;2022-08-19T20:32:52;22.10;99.90
1678;DHT22;6034;46.864;15.216;2022-08-19T20:35:21;22.10;99.90
1678;DHT22;6034;46.864;15.216;2022-08-19T20:37:48;22.10;99.90
1678;DHT22;6034;46.864;15.216;2022-08-19T20:40:17;22.00;99.90
1678;DHT22;6034;46.864;15.216;2022-08-19T20:42:44;22.00;99.90
1678;DHT22;6034;46.864;15.216;2022-08-19T20:45:12;22.10;99.90
1678;DHT22;6034;46.864;15.216;2022-08-19T20:47:40;22.10;99.90
1678;DHT22;6034;46.864;15.216;2022-08-19T20:50:07;22.10;99.90
1678;DHT22;6034;46.864;15.216;2022-08-19T20:52:34;22.10;99.90
1678;DHT22;6034;46.864;15.216;2022-08-19T20:55:02;22.10;99.90